logo
Search for airport 
image banner adimage banner adimage banner ad
image banner ad

CYQM - Greater Moncton Romeo Leblanc Intl

Located in Moncton, Canada

ICAO - CYQM, IATA - YQM

Data provided by Airmate  

General information

Coordinates: N46°6'58" W64°40'43"
Elevation is 232 feet MSL.
Magnetic variation is -18.2031° East
View others Airports in New Brunswick

Operational data

Special qualification required
Current time UTC:
Current local time:
Weather
METAR: CYQM 171338Z 21006KT 3SM -RA BR FEW002 FEW013 BKN054 OVC068 21/21 A2969 RMK SF1SC1SC6AC1 SF TR SLP056 DENSITY ALT 1300FT
TAF: TAF AMD CYQM 171327Z 1713/1812 20008KT P6SM -SHRA SCT060 OVC100 TEMPO 1713/1714 1 1/2SM -SHRA BR FEW003 OVC060 FM171400 24008KT P6SM BKN012 BKN080 TEMPO 1714/1717 SCT015 BKN080 FM171700 25012KT P6SM BKN030 FM172100 24012KT P6SM SCT040 BECMG 1800/1802 20008KT FM180800 20008KT P6SM -SHRA FEW012 BKN040 OVC080 RMK NXT FCST BY 171800Z
View NOTAMs / SUP AIP / TFR affecting this airport [VIEW]
Communications frequencies: [VIEW]

Runways:

RWY identifierQFULength (ft)Width (ft)SurfaceLDA (ft)
0642°10001200ASPH10001
24223°10001200ASPH10001
1187°8000200ASPH8000
29268°8000200ASPH8000

Airport contact information

Address: Moncton Canada

Other aviation service providers

Flight schools

Moncton Flight College

Moncton Flight College

Satellite view of CYQM